Airport View

Enter AWOS ICAO identifier for current METAR.

ex. KFNL

KMPZ 192340Z AUTO 00000KT 7SM BKN008 OVC042 02/01 A3022 RMK AO2

19 Oct 2020 23:50

Frequency: 119.325

Phone: 319-385-4926

Other Area AWOS: KFSW - KBRL - KAWG - KFFL

TAF KBRL 191743Z 1918/2018 01007KT P6SM -RASN OVC040 FM192300 04006KT P6SM BKN050 FM201500 11008KT P6SM BKN040